Time;durP1;ratioP1;P1;durP2;ratioP2;P2;SDS_P1;SDS_P2;PMS_P1;PMS_P2;Temp;Humidity;BMP_temperature;BMP_pressure;BME280_temperature;BME280_humidity;BME280_pressure;Samples;Min_cycle;Max_cycle;Signal;HPM_P1;HPM_P2
2023/10/11 00:00:33;;;;;;;1.50;1.00;;;16.90;98.20;;;;;;5050283;28;20462;-79
2023/10/11 00:03:05;;;;;;;1.50;1.00;;;16.90;98.20;;;;;;5042590;28;21048;-81
2023/10/11 00:05:36;;;;;;;1.43;0.90;;;16.90;98.20;;;;;;5051675;28;20899;-81
2023/10/11 00:08:04;;;;;;;1.47;0.93;;;16.90;98.20;;;;;;5056082;28;20544;-81
2023/10/11 00:10:31;;;;;;;1.50;1.00;;;16.90;98.20;;;;;;5052948;28;20467;-82
2023/10/11 00:12:58;;;;;;;1.50;1.00;;;16.90;98.20;;;;;;5044372;28;21030;-80
2023/10/11 00:15:28;;;;;;;1.80;1.40;;;16.90;98.20;;;;;;5045826;28;20494;-80
2023/10/11 00:17:55;;;;;;;1.53;1.17;;;16.90;98.20;;;;;;5039880;28;21088;-82
2023/10/11 00:20:31;;;;;;;1.50;0.97;;;16.90;98.20;;;;;;5051924;28;20474;-81
2023/10/11 00:22:59;;;;;;;1.50;1.00;;;16.90;98.20;;;;;;5041231;28;20484;-80
2023/10/11 00:25:27;;;;;;;1.50;1.00;;;16.90;98.20;;;;;;5046145;28;20462;-81
2023/10/11 00:27:56;;;;;;;1.43;0.90;;;16.80;98.20;;;;;;5042468;28;20528;-81
2023/10/11 00:30:23;;;;;;;1.50;0.90;;;16.80;98.20;;;;;;5050570;28;20461;-82
2023/10/11 00:32:52;;;;;;;1.50;1.00;;;16.80;98.20;;;;;;5041706;28;20548;-80
2023/10/11 00:35:24;;;;;;;1.43;1.00;;;16.70;98.20;;;;;;5051791;28;21049;-80
2023/10/11 00:37:53;;;;;;;1.47;0.90;;;16.70;98.20;;;;;;5050275;28;20493;-80
2023/10/11 00:40:26;;;;;;;1.50;1.00;;;16.70;98.20;;;;;;5053689;28;20465;-81
2023/10/11 00:42:53;;;;;;;1.50;1.00;;;16.70;98.20;;;;;;5042983;28;20497;-82
2023/10/11 00:45:22;;;;;;;1.50;0.90;;;16.70;98.20;;;;;;5049309;28;20502;-83
2023/10/11 00:47:51;;;;;;;1.50;1.00;;;16.70;98.20;;;;;;5044477;28;20696;-80
2023/10/11 00:50:21;;;;;;;1.47;1.00;;;16.70;98.20;;;;;;5056283;28;20463;-79
2023/10/11 00:52:50;;;;;;;1.50;1.00;;;16.70;98.20;;;;;;5048551;28;20513;-78
2023/10/11 00:55:18;;;;;;;1.50;1.00;;;16.60;98.20;;;;;;5054820;28;20811;-79
2023/10/11 00:57:47;;;;;;;1.50;1.00;;;16.60;98.20;;;;;;5044773;28;20559;-79
2023/10/11 01:00:16;;;;;;;1.40;0.90;;;16.60;98.20;;;;;;5055150;28;20538;-80
2023/10/11 01:02:44;;;;;;;1.50;1.00;;;16.60;98.20;;;;;;5041694;28;20486;-79
2023/10/11 01:05:12;;;;;;;1.40;0.90;;;16.60;98.20;;;;;;5054657;28;20833;-78
2023/10/11 01:07:40;;;;;;;1.50;0.97;;;16.60;98.20;;;;;;5042989;28;20524;-78
2023/10/11 01:10:08;;;;;;;1.50;1.10;;;16.50;98.20;;;;;;5051216;28;20481;-78
2023/10/11 01:12:35;;;;;;;1.50;0.90;;;16.50;98.20;;;;;;5046576;28;20569;-81
2023/10/11 01:15:03;;;;;;;1.50;1.00;;;16.50;98.20;;;;;;5034596;28;20490;-78
2023/10/11 01:17:31;;;;;;;1.50;0.90;;;16.40;98.20;;;;;;5050929;28;20492;-77
2023/10/11 01:19:59;;;;;;;1.50;0.93;;;16.40;98.20;;;;;;5051017;28;20493;-78
2023/10/11 01:22:28;;;;;;;1.50;1.03;;;16.40;98.20;;;;;;5053924;28;20481;-78
2023/10/11 01:25:00;;;;;;;1.47;0.90;;;16.30;98.20;;;;;;5047597;28;20454;-79
2023/10/11 01:27:30;;;;;;;1.50;1.00;;;16.30;98.20;;;;;;5039226;28;21047;-79
2023/10/11 01:29:58;;;;;;;1.50;1.00;;;16.30;98.20;;;;;;5052023;28;20857;-78
2023/10/11 01:32:25;;;;;;;1.50;1.00;;;16.30;98.20;;;;;;5048737;28;20489;-78
2023/10/11 01:34:51;;;;;;;1.50;1.00;;;16.20;98.20;;;;;;5042631;28;20463;-79
2023/10/11 01:37:19;;;;;;;1.50;1.00;;;16.20;98.20;;;;;;5039024;28;20490;-80
2023/10/11 01:39:48;;;;;;;1.50;1.00;;;16.20;98.20;;;;;;5052451;28;20462;-80
2023/10/11 01:42:15;;;;;;;1.50;1.00;;;16.20;98.20;;;;;;5048476;28;20512;-80
2023/10/11 01:44:42;;;;;;;1.50;1.00;;;16.20;98.20;;;;;;5046054;28;20463;-80
2023/10/11 01:47:09;;;;;;;1.50;1.00;;;16.10;98.20;;;;;;5039269;28;20583;-81
2023/10/11 01:49:39;;;;;;;1.50;1.00;;;16.10;98.20;;;;;;5040734;28;20469;-80
2023/10/11 01:52:06;;;;;;;1.50;1.10;;;16.10;98.20;;;;;;5044458;28;20648;-81
2023/10/11 01:54:34;;;;;;;1.50;1.00;;;16.10;98.20;;;;;;5055274;28;20494;-79
2023/10/11 01:57:02;;;;;;;1.50;1.00;;;16.10;98.20;;;;;;5043620;28;20732;-79
2023/10/11 01:59:30;;;;;;;1.50;1.00;;;16.10;98.20;;;;;;5051910;28;20869;-78
2023/10/11 02:02:02;;;;;;;1.50;1.00;;;16.10;98.20;;;;;;5040687;28;20929;-78
2023/10/11 02:04:30;;;;;;;1.50;1.00;;;16.10;98.20;;;;;;5045005;28;20508;-78
2023/10/11 02:06:58;;;;;;;1.50;1.00;;;16.00;98.20;;;;;;5033798;28;20509;-79
2023/10/11 02:09:24;;;;;;;1.50;1.00;;;16.00;98.20;;;;;;5048863;28;20458;-78
2023/10/11 02:11:55;;;;;;;1.50;0.93;;;16.00;98.20;;;;;;5046721;28;20488;-78
2023/10/11 02:14:23;;;;;;;1.50;1.10;;;15.90;98.20;;;;;;5050364;28;20458;-78
2023/10/11 02:16:53;;;;;;;1.50;1.00;;;15.90;98.20;;;;;;5031297;28;20506;-79
2023/10/11 02:19:22;;;;;;;1.50;1.00;;;15.90;98.20;;;;;;5042216;28;20478;-79
2023/10/11 02:21:53;;;;;;;1.43;0.90;;;15.90;98.20;;;;;;5044301;28;20500;-79
2023/10/11 02:24:20;;;;;;;1.50;1.00;;;15.80;98.20;;;;;;5056015;28;20455;-79
2023/10/11 02:26:49;;;;;;;1.50;1.00;;;15.80;98.20;;;;;;5038411;28;20485;-78
2023/10/11 02:29:20;;;;;;;1.50;1.00;;;15.70;98.20;;;;;;5044442;28;20485;-79
2023/10/11 02:31:50;;;;;;;1.50;1.00;;;15.70;98.20;;;;;;5039570;28;20481;-78
2023/10/11 02:34:17;;;;;;;1.50;1.00;;;15.60;98.20;;;;;;5051908;28;20463;-80
2023/10/11 02:36:45;;;;;;;1.50;1.00;;;15.60;98.20;;;;;;5040734;28;20508;-81
2023/10/11 02:39:20;;;;;;;1.50;1.00;;;15.60;98.20;;;;;;5057632;28;20495;-80
2023/10/11 02:41:50;;;;;;;1.50;1.00;;;15.60;98.20;;;;;;5046959;28;21033;-80
2023/10/11 02:44:22;;;;;;;1.50;1.00;;;15.60;98.20;;;;;;5053586;28;20895;-80
2023/10/11 02:46:50;;;;;;;1.50;1.00;;;15.50;98.20;;;;;;5038338;28;20934;-78
2023/10/11 02:49:20;;;;;;;1.50;1.10;;;15.50;98.20;;;;;;5048418;28;20458;-78
2023/10/11 02:51:52;;;;;;;1.50;1.00;;;15.50;98.20;;;;;;5037399;28;20585;-79
2023/10/11 02:54:20;;;;;;;1.50;1.00;;;15.50;98.20;;;;;;5051883;28;20485;-78
2023/10/11 02:56:52;;;;;;;1.50;1.00;;;15.50;98.20;;;;;;5038317;28;20486;-78
2023/10/11 02:59:22;;;;;;;1.50;1.10;;;15.40;98.20;;;;;;5047647;28;20463;-78
2023/10/11 03:02:00;;;;;;;1.50;1.00;;;15.40;98.20;;;;;;5043015;28;20481;-79
2023/10/11 03:04:29;;;;;;;1.50;1.00;;;15.40;98.20;;;;;;5054627;28;20458;-79
2023/10/11 03:06:55;;;;;;;1.50;1.00;;;15.40;98.20;;;;;;5049562;28;20481;-79
2023/10/11 03:09:27;;;;;;;1.50;1.00;;;15.40;98.20;;;;;;5057869;28;20459;-79
2023/10/11 03:11:56;;;;;;;1.50;1.00;;;15.30;98.20;;;;;;5034855;28;20808;-79
2023/10/11 03:14:27;;;;;;;1.50;1.10;;;15.30;98.20;;;;;;5055819;28;20470;-78
2023/10/11 03:17:05;;;;;;;1.50;1.00;;;15.30;98.20;;;;;;5042158;28;20473;-78
2023/10/11 03:19:34;;;;;;;1.50;1.00;;;15.20;98.20;;;;;;5039272;28;20555;-80
2023/10/11 03:22:02;;;;;;;1.50;1.00;;;15.20;98.20;;;;;;5040584;28;20482;-78
2023/10/11 03:24:33;;;;;;;1.50;1.00;;;15.20;98.20;;;;;;5048035;28;20896;-78
2023/10/11 03:27:00;;;;;;;1.50;1.00;;;15.20;98.20;;;;;;5038997;28;20925;-79
2023/10/11 03:29:30;;;;;;;1.50;1.00;;;15.20;98.20;;;;;;5054184;28;20995;-78
2023/10/11 03:31:58;;;;;;;1.90;1.73;;;15.20;98.20;;;;;;5039655;28;20564;-79
2023/10/11 03:34:29;;;;;;;1.50;1.00;;;15.20;98.20;;;;;;5049662;28;20494;-79
2023/10/11 03:36:59;;;;;;;1.50;1.10;;;15.20;98.20;;;;;;5040180;28;20569;-79
2023/10/11 03:39:39;;;;;;;1.50;1.00;;;15.20;98.20;;;;;;5052650;28;20458;-79
2023/10/11 03:42:14;;;;;;;1.50;1.00;;;15.20;98.20;;;;;;5043553;28;20469;-79
2023/10/11 03:44:45;;;;;;;1.50;1.10;;;15.20;98.20;;;;;;5048178;28;20501;-78
2023/10/11 03:47:15;;;;;;;1.50;1.00;;;15.20;98.20;;;;;;5044365;28;20477;-79
2023/10/11 03:49:51;;;;;;;1.50;1.00;;;15.20;98.20;;;;;;5051127;28;20458;-80
2023/10/11 03:52:22;;;;;;;1.50;1.00;;;15.10;98.20;;;;;;5044848;28;20477;-80
2023/10/11 03:54:53;;;;;;;1.50;1.00;;;15.10;98.20;;;;;;5047938;28;20486;-79
2023/10/11 03:57:19;;;;;;;1.50;1.00;;;15.10;98.20;;;;;;5042619;28;20849;-79
2023/10/11 03:59:51;;;;;;;1.50;1.10;;;15.10;98.20;;;;;;5046492;28;20468;-78
2023/10/11 04:02:23;;;;;;;1.50;1.00;;;15.10;98.20;;;;;;5041415;28;20485;-79
2023/10/11 04:04:50;;;;;;;1.50;1.00;;;15.10;98.20;;;;;;5049722;28;20462;-80
2023/10/11 04:07:18;;;;;;;1.50;1.00;;;15.10;98.20;;;;;;5046616;28;20536;-78
2023/10/11 04:09:46;;;;;;;1.50;1.00;;;15.00;98.20;;;;;;5050261;28;20463;-78
2023/10/11 04:12:13;;;;;;;1.50;1.10;;;15.00;98.20;;;;;;5043266;28;20592;-78
2023/10/11 04:14:44;;;;;;;1.50;1.00;;;15.00;98.20;;;;;;5047932;28;20570;-79
2023/10/11 04:17:24;;;;;;;1.50;1.00;;;15.00;98.20;;;;;;5038975;28;21014;-82
2023/10/11 04:19:54;;;;;;;1.50;1.00;;;15.00;98.20;;;;;;5047996;28;20732;-81
2023/10/11 04:22:24;;;;;;;1.50;1.00;;;14.90;98.20;;;;;;5042316;28;21029;-83
2023/10/11 04:24:53;;;;;;;1.50;1.10;;;14.90;98.20;;;;;;5049530;28;20836;-82
2023/10/11 04:30:23;;;;;;;1.50;1.00;;;14.90;98.20;;;;;;5048355;28;20461;-82
2023/10/11 04:32:55;;;;;;;1.50;1.00;;;14.90;98.20;;;;;;5035562;28;20474;-83
2023/10/11 04:35:25;;;;;;;1.50;1.00;;;14.90;98.20;;;;;;5050568;28;20469;-83
2023/10/11 04:37:54;;;;;;;1.50;1.00;;;14.80;98.20;;;;;;5037629;28;20892;-82
2023/10/11 04:40:38;;;;;;;1.50;1.20;;;14.80;98.20;;;;;;5046012;28;20553;-80
2023/10/11 04:43:20;;;;;;;1.50;1.00;;;14.80;98.20;;;;;;5049460;28;20864;-79
2023/10/11 04:45:49;;;;;;;1.50;1.00;;;14.80;98.20;;;;;;5042452;28;20746;-80
2023/10/11 04:48:18;;;;;;;1.50;1.00;;;14.90;98.20;;;;;;5045387;28;20479;-79
2023/10/11 04:50:50;;;;;;;3.10;2.50;;;14.80;98.20;;;;;;5046344;28;20489;-81
2023/10/11 04:53:18;;;;;;;1.50;1.00;;;14.90;98.20;;;;;;5031574;28;20944;-80
2023/10/11 04:55:58;;;;;;;1.50;1.00;;;14.90;98.20;;;;;;5052422;28;20462;-79
2023/10/11 04:58:39;;;;;;;1.50;1.00;;;14.90;98.20;;;;;;5055068;28;21013;-80
2023/10/11 05:01:08;;;;;;;1.50;1.00;;;14.90;98.20;;;;;;5038993;28;20540;-81
2023/10/11 05:03:37;;;;;;;1.50;1.00;;;14.80;98.20;;;;;;5061833;28;20534;-79
2023/10/11 05:06:13;;;;;;;1.50;1.00;;;14.80;98.20;;;;;;5036399;28;20862;-78
2023/10/11 05:08:51;;;;;;;1.50;1.00;;;14.80;98.20;;;;;;5042373;28;20511;-80
2023/10/11 05:11:31;;;;;;;1.50;1.00;;;14.90;98.20;;;;;;5038763;28;20516;-80
2023/10/11 05:14:10;;;;;;;1.50;1.00;;;14.90;98.20;;;;;;5054246;28;20453;-81
2023/10/11 05:16:44;;;;;;;1.50;1.07;;;14.90;98.20;;;;;;5032846;28;20509;-81
2023/10/11 05:19:14;;;;;;;1.60;1.40;;;14.90;98.20;;;;;;5041791;28;20491;-80
2023/10/11 05:21:43;;;;;;;1.50;1.00;;;14.90;98.20;;;;;;5044074;28;20837;-80
2023/10/11 05:24:27;;;;;;;1.50;1.00;;;14.90;98.20;;;;;;5057034;28;20941;-78
2023/10/11 05:27:04;;;;;;;1.50;1.10;;;14.90;98.20;;;;;;5029452;28;20510;-78
2023/10/11 05:29:33;;;;;;;1.50;1.10;;;14.90;98.20;;;;;;5042350;28;20458;-81
2023/10/11 05:32:20;;;;;;;1.50;1.10;;;14.90;98.20;;;;;;5045448;28;20480;-80
2023/10/11 05:34:50;;;;;;;1.50;1.00;;;14.90;98.20;;;;;;5051228;28;20508;-78
2023/10/11 05:51:07;;;;;;;1.50;1.00;;;14.90;98.20;;;;;;5039851;28;21100;-78
2023/10/11 05:53:35;;;;;;;1.50;1.10;;;14.90;98.20;;;;;;5062785;28;20546;-79
2023/10/11 05:56:02;;;;;;;1.47;1.00;;;15.00;98.20;;;;;;5056529;28;20552;-79
2023/10/11 05:58:34;;;;;;;1.50;1.00;;;15.00;98.20;;;;;;5063971;28;21098;-79
2023/10/11 06:01:06;;;;;;;1.50;1.00;;;15.00;98.20;;;;;;5058882;28;20457;-80
2023/10/11 06:03:35;;;;;;;1.50;1.10;;;15.00;98.20;;;;;;5064842;28;20487;-80
2023/10/11 06:06:13;;;;;;;1.50;1.00;;;15.00;98.20;;;;;;5055080;28;20457;-80
2023/10/11 06:08:44;;;;;;;1.50;1.00;;;15.00;98.20;;;;;;5058334;28;20552;-80
2023/10/11 06:11:12;;;;;;;1.50;1.00;;;15.00;98.20;;;;;;5069599;28;20587;-80
2023/10/11 06:13:40;;;;;;;1.50;1.00;;;15.00;98.20;;;;;;5067799;28;20537;-80
2023/10/11 06:16:13;;;;;;;1.50;1.00;;;15.10;98.20;;;;;;5067279;28;20462;-80
2023/10/11 06:18:42;;;;;;;1.50;1.07;;;15.10;98.20;;;;;;5067886;28;20489;-80
2023/10/11 06:22:10;;;;;;;1.50;1.00;;;15.10;98.20;;;;;;5055725;28;20469;-80
2023/10/11 06:24:38;;;;;;;1.60;1.00;;;15.20;98.20;;;;;;5059684;28;20466;-79
2023/10/11 06:28:09;;;;;;;1.47;0.90;;;15.30;98.20;;;;;;5054117;28;20569;-79
2023/10/11 06:29:58;;;;;;;1.50;1.00;;;15.30;98.20;;;;;;5067243;28;20913;-79
2023/10/11 06:32:24;;;;;;;1.50;1.00;;;15.40;98.20;;;;;;5053561;28;20565;-79
2023/10/11 06:34:51;;;;;;;1.47;1.00;;;15.40;98.20;;;;;;5069699;28;20938;-78
2023/10/11 06:37:24;;;;;;;1.50;1.00;;;15.50;98.20;;;;;;5052627;28;20322;-80
2023/10/11 06:40:13;;;;;;;1.50;1.00;;;15.60;98.20;;;;;;5070431;28;21149;-82
2023/10/11 06:42:40;;;;;;;1.47;1.00;;;15.70;98.20;;;;;;5057245;28;20492;-80
2023/10/11 06:45:16;;;;;;;1.50;1.00;;;15.80;98.20;;;;;;5069915;28;20860;-79
2023/10/11 06:47:49;;;;;;;1.50;1.00;;;15.90;98.20;;;;;;5052268;28;20785;-79
2023/10/11 06:50:24;;;;;;;1.50;1.00;;;16.00;98.20;;;;;;5070624;28;20457;-80
2023/10/11 06:52:50;;;;;;;1.50;1.00;;;16.10;98.20;;;;;;5052565;28;20477;-79
2023/10/11 06:55:22;;;;;;;1.50;1.00;;;16.10;98.20;;;;;;5067803;28;21019;-78
2023/10/11 06:57:51;;;;;;;1.50;1.00;;;16.20;98.20;;;;;;5056790;28;20560;-78
2023/10/11 07:00:21;;;;;;;1.50;0.97;;;16.30;98.20;;;;;;5069984;28;20464;-80
2023/10/11 07:02:48;;;;;;;1.50;1.00;;;16.40;98.20;;;;;;5048856;28;20527;-78
2023/10/11 07:05:19;;;;;;;1.50;1.00;;;16.50;98.20;;;;;;5066750;28;20457;-80
2023/10/11 07:07:48;;;;;;;1.50;0.90;;;16.60;98.20;;;;;;5052296;28;20793;-80
2023/10/11 07:13:07;;;;;;;1.50;1.00;;;16.80;98.20;;;;;;5033022;28;20469;-80
2023/10/11 07:15:38;;;;;;;1.50;1.00;;;16.90;98.20;;;;;;5068290;28;20991;-78
2023/10/11 07:18:08;;;;;;;1.50;1.00;;;17.00;98.20;;;;;;5040201;28;20990;-80
2023/10/11 07:20:58;;;;;;;1.70;1.20;;;17.10;98.20;;;;;;5051538;28;21070;-79
2023/10/11 07:23:35;;;;;;;1.50;1.00;;;17.20;98.20;;;;;;5019034;28;20508;-79
2023/10/11 07:26:23;;;;;;;2.23;2.03;;;17.30;98.20;;;;;;5039484;28;20539;-79
2023/10/11 07:28:52;;;;;;;1.50;0.93;;;17.40;98.20;;;;;;5063278;28;21005;-80
2023/10/11 07:31:19;;;;;;;1.50;1.00;;;17.60;98.20;;;;;;5052773;28;20508;-78
2023/10/11 07:33:49;;;;;;;1.50;1.00;;;17.70;98.20;;;;;;5060065;28;20548;-80
2023/10/11 07:36:18;;;;;;;1.50;1.00;;;17.80;98.20;;;;;;5051403;28;20466;-80
2023/10/11 07:38:54;;;;;;;1.50;1.10;;;18.00;98.20;;;;;;5058178;28;20909;-80
2023/10/11 07:41:22;;;;;;;1.50;0.93;;;18.10;98.20;;;;;;5054063;28;20474;-80
2023/10/11 07:43:49;;;;;;;1.50;0.90;;;18.20;98.20;;;;;;5061873;28;20461;-79
2023/10/11 07:46:18;;;;;;;1.50;1.00;;;18.40;98.20;;;;;;5050898;28;20573;-80
2023/10/11 07:48:44;;;;;;;1.50;0.90;;;18.50;98.20;;;;;;5063662;28;20481;-80
2023/10/11 07:51:11;;;;;;;1.47;0.90;;;18.60;98.20;;;;;;5063270;28;21157;-79
2023/10/11 07:53:41;;;;;;;1.50;0.90;;;18.80;98.20;;;;;;5064005;28;20545;-80
2023/10/11 07:56:08;;;;;;;1.50;1.00;;;18.90;98.20;;;;;;5053340;28;20470;-79
2023/10/11 07:58:35;;;;;;;2.20;1.93;;;19.10;98.20;;;;;;5049883;28;20896;-79
2023/10/11 08:01:15;;;;;;;1.50;1.00;;;19.20;98.20;;;;;;5053958;28;20475;-79
2023/10/11 08:03:44;;;;;;;1.50;1.00;;;19.30;98.20;;;;;;5061423;28;20457;-80
2023/10/11 08:06:13;;;;;;;1.50;0.90;;;19.50;98.20;;;;;;5053168;28;20488;-78
2023/10/11 08:08:40;;;;;;;1.50;1.00;;;19.60;98.20;;;;;;5063492;28;20501;-80
2023/10/11 08:11:18;;;;;;;1.50;0.90;;;19.70;98.20;;;;;;5050659;28;20582;-79
2023/10/11 08:13:49;;;;;;;1.50;1.00;;;19.80;98.20;;;;;;5055534;28;20462;-80
2023/10/11 08:16:18;;;;;;;1.50;0.90;;;20.00;98.10;;;;;;5039205;28;20473;-77
2023/10/11 08:18:49;;;;;;;1.50;0.90;;;20.10;97.20;;;;;;5054735;28;20575;-79
2023/10/11 08:21:16;;;;;;;1.50;1.00;;;20.20;97.10;;;;;;5039309;28;20480;-81
2023/10/11 08:23:44;;;;;;;1.60;1.30;;;20.30;97.10;;;;;;5058897;28;20922;-80
2023/10/11 08:26:15;;;;;;;1.50;1.10;;;20.40;97.10;;;;;;5037412;28;20539;-79
2023/10/11 08:28:48;;;;;;;1.47;0.90;;;20.50;96.70;;;;;;5059137;28;20477;-80
2023/10/11 08:31:26;;;;;;;1.50;0.90;;;20.60;96.80;;;;;;5039621;28;20730;-80
2023/10/11 08:33:54;;;;;;;1.50;0.90;;;20.70;96.90;;;;;;5054574;28;20490;-79
2023/10/11 08:36:21;;;;;;;1.50;0.90;;;20.80;97.30;;;;;;5039768;28;20588;-79
2023/10/11 08:38:49;;;;;;;1.47;0.90;;;20.90;97.30;;;;;;5056833;28;20569;-80
2023/10/11 08:41:18;;;;;;;1.47;0.90;;;21.00;97.80;;;;;;5039040;28;20485;-79
2023/10/11 08:43:49;;;;;;;1.50;1.00;;;21.20;97.40;;;;;;5057786;28;20932;-80
2023/10/11 08:46:18;;;;;;;1.50;1.00;;;21.30;96.50;;;;;;5037791;28;21003;-79
2023/10/11 08:48:49;;;;;;;1.60;1.30;;;21.40;96.00;;;;;;5057598;28;20485;-80
2023/10/11 08:51:22;;;;;;;1.50;0.90;;;21.50;96.30;;;;;;5039195;28;20473;-79
2023/10/11 08:53:54;;;;;;;1.50;0.90;;;21.50;95.90;;;;;;5057099;28;20462;-79
2023/10/11 08:56:23;;;;;;;1.50;0.90;;;21.60;95.80;;;;;;5036420;28;20513;-79
2023/10/11 08:58:53;;;;;;;1.50;1.00;;;21.70;95.90;;;;;;5044615;28;20486;-79
2023/10/11 09:01:24;;;;;;;1.50;0.90;;;21.80;96.20;;;;;;5038461;28;20588;-79
2023/10/11 09:04:04;;;;;;;1.50;0.90;;;21.90;96.20;;;;;;5054998;28;20520;-79
2023/10/11 09:06:35;;;;;;;1.50;0.90;;;22.00;95.70;;;;;;5032368;28;20494;-79
2023/10/11 09:09:03;;;;;;;1.50;0.90;;;22.20;96.20;;;;;;5047515;28;20470;-79
2023/10/11 09:11:31;;;;;;;1.40;0.90;;;22.30;95.70;;;;;;5044041;28;20477;-79
2023/10/11 09:14:12;;;;;;;1.50;0.90;;;22.50;95.00;;;;;;5057335;28;20462;-79
2023/10/11 09:16:40;;;;;;;1.50;0.90;;;22.60;95.20;;;;;;5043398;28;20477;-78
2023/10/11 09:19:09;;;;;;;1.50;1.10;;;22.80;93.30;;;;;;5057888;28;20885;-79
2023/10/11 09:21:38;;;;;;;1.50;0.90;;;23.00;93.90;;;;;;5043603;28;20503;-79
2023/10/11 09:24:23;;;;;;;1.50;0.90;;;23.10;91.70;;;;;;5059591;28;20470;-78
2023/10/11 09:27:12;;;;;;;1.47;0.90;;;23.30;91.70;;;;;;5046829;28;20560;-78
2023/10/11 09:29:39;;;;;;;1.50;0.90;;;23.40;90.60;;;;;;5054272;28;20462;-78
2023/10/11 09:32:06;;;;;;;1.50;0.90;;;23.60;90.90;;;;;;5048343;28;20473;-78
2023/10/11 09:34:34;;;;;;;1.50;0.90;;;23.70;91.20;;;;;;5053149;28;20505;-78
2023/10/11 09:37:02;;;;;;;1.50;0.80;;;23.90;90.60;;;;;;5045872;28;20516;-78
2023/10/11 09:39:30;;;;;;;1.50;0.90;;;24.00;89.90;;;;;;5050760;28;20492;-82
2023/10/11 09:42:02;;;;;;;1.50;0.90;;;24.20;88.80;;;;;;5048291;28;20473;-80
2023/10/11 09:44:37;;;;;;;1.47;0.90;;;24.20;88.20;;;;;;5052980;28;20466;-79
2023/10/11 09:47:05;;;;;;;1.50;0.90;;;24.30;88.40;;;;;;5047784;28;20538;-80
2023/10/11 09:49:41;;;;;;;1.50;0.90;;;24.30;88.10;;;;;;5052087;28;20462;-80
2023/10/11 09:52:10;;;;;;;1.50;0.90;;;24.40;87.20;;;;;;5048691;28;20588;-80
2023/10/11 09:54:39;;;;;;;1.50;0.87;;;24.50;87.10;;;;;;5051012;28;21079;-80
2023/10/11 09:57:23;;;;;;;1.47;0.90;;;24.50;86.90;;;;;;5048828;28;20582;-77
2023/10/11 09:59:59;;;;;;;1.50;0.90;;;24.70;87.10;;;;;;5053425;28;20569;-78
2023/10/11 10:02:33;;;;;;;1.50;0.90;;;24.80;87.00;;;;;;5049715;28;20877;-77
2023/10/11 10:05:04;;;;;;;1.43;0.90;;;24.80;86.10;;;;;;5048304;28;20468;-79
2023/10/11 10:07:42;;;;;;;1.43;0.90;;;24.90;86.00;;;;;;5050988;28;21034;-80
2023/10/11 10:10:11;;;;;;;1.47;0.80;;;25.00;86.50;;;;;;5049300;28;20454;-77
2023/10/11 10:12:42;;;;;;;1.50;0.90;;;25.20;86.50;;;;;;5035351;28;20482;-78
2023/10/11 10:15:13;;;;;;;1.47;0.90;;;25.30;86.20;;;;;;5047473;28;20705;-79
2023/10/11 10:17:42;;;;;;;1.47;0.80;;;25.40;84.20;;;;;;5053396;28;20547;-79
2023/10/11 10:20:44;;;;;;;1.47;0.80;;;25.40;81.80;;;;;;5047524;28;20494;-77
2023/10/11 10:23:32;;;;;;;1.47;0.80;;;25.30;82.90;;;;;;5052289;28;20481;-78
2023/10/11 10:26:38;;;;;;;1.47;0.80;;;25.30;85.00;;;;;;5037387;28;20465;-77
2023/10/11 10:29:07;;;;;;;1.50;0.90;;;25.40;83.60;;;;;;5055203;28;20866;-78
2023/10/11 10:31:34;;;;;;;1.50;0.90;;;25.50;84.20;;;;;;5045631;28;20820;-79
2023/10/11 10:34:29;;;;;;;1.50;0.90;;;25.70;85.00;;;;;;5060520;28;20650;-79
2023/10/11 10:36:59;;;;;;;1.47;0.90;;;25.80;83.00;;;;;;5052211;28;20478;-78
2023/10/11 10:42:15;;;;;;;1.47;0.80;;;26.00;84.40;;;;;;5048105;28;20488;-80
2023/10/11 10:44:53;;;;;;;2.60;2.40;;;26.10;83.80;;;;;;5049861;28;20960;-77
2023/10/11 10:47:31;;;;;;;1.50;0.90;;;26.20;83.10;;;;;;5047215;28;20517;-78
2023/10/11 10:50:06;;;;;;;1.50;0.90;;;26.20;82.40;;;;;;5046649;28;20462;-79
2023/10/11 10:52:34;;;;;;;1.50;1.00;;;26.30;82.50;;;;;;5047187;28;20537;-79
2023/10/11 10:55:04;;;;;;;1.50;0.80;;;26.30;83.60;;;;;;5050682;28;20474;-79
2023/10/11 10:57:33;;;;;;;1.50;0.90;;;26.30;83.10;;;;;;5051589;28;20485;-80
2023/10/11 11:00:05;;;;;;;1.50;0.90;;;26.30;82.20;;;;;;5047544;28;20616;-79
2023/10/11 11:02:38;;;;;;;1.47;0.90;;;26.30;82.20;;;;;;5019925;28;20470;-80
2023/10/11 11:05:18;;;;;;;1.40;0.80;;;26.20;81.90;;;;;;5046151;28;20912;-78
2023/10/11 11:07:47;;;;;;;2.60;2.40;;;26.30;82.40;;;;;;5052140;28;20581;-80
2023/10/11 11:10:19;;;;;;;1.47;0.80;;;26.30;81.80;;;;;;5047260;28;20725;-78
2023/10/11 11:12:46;;;;;;;1.50;0.90;;;26.30;82.10;;;;;;5052133;28;20465;-80
2023/10/11 11:15:20;;;;;;;1.50;0.80;;;26.40;81.90;;;;;;5046689;28;20466;-78
2023/10/11 11:17:49;;;;;;;1.43;0.80;;;26.40;81.60;;;;;;5033592;28;20474;-79
2023/10/11 11:20:28;;;;;;;1.50;0.90;;;26.40;81.10;;;;;;5048213;28;20569;-79
2023/10/11 11:22:56;;;;;;;2.30;2.10;;;26.50;81.60;;;;;;5052197;28;20687;-79
2023/10/11 11:25:27;;;;;;;1.43;0.90;;;26.50;83.00;;;;;;5047127;28;20945;-79
2023/10/11 11:28:16;;;;;;;1.43;0.90;;;26.40;81.00;;;;;;5053598;28;20930;-79
2023/10/11 11:30:44;;;;;;;1.47;1.00;;;26.30;81.50;;;;;;5046988;28;20466;-80
2023/10/11 11:33:28;;;;;;;1.47;0.90;;;26.20;81.90;;;;;;5044568;28;20486;-80
2023/10/11 11:35:55;;;;;;;1.50;0.90;;;26.10;81.30;;;;;;5033261;28;21015;-77
2023/10/11 11:38:22;;;;;;;1.40;0.80;;;26.00;82.40;;;;;;5041710;28;20676;-79
2023/10/11 11:40:51;;;;;;;2.67;1.57;;;26.00;83.10;;;;;;5032108;28;20810;-80
2023/10/11 11:43:20;;;;;;;1.47;0.83;;;26.00;83.10;;;;;;5046116;28;20489;-79
2023/10/11 11:45:47;;;;;;;1.47;0.90;;;26.10;83.70;;;;;;5043437;28;20462;-77
2023/10/11 11:48:23;;;;;;;1.50;0.80;;;26.10;82.40;;;;;;5057537;28;20890;-78
2023/10/11 11:50:49;;;;;;;1.43;0.80;;;26.20;81.30;;;;;;5036465;28;21030;-79
2023/10/11 11:53:18;;;;;;;1.47;0.80;;;26.20;82.30;;;;;;5060716;28;20508;-80
2023/10/11 11:55:45;;;;;;;1.50;0.80;;;26.30;81.70;;;;;;5045450;28;20466;-77
2023/10/11 11:58:16;;;;;;;1.50;0.90;;;26.30;80.70;;;;;;5031708;28;20466;-78
2023/10/11 12:00:45;;;;;;;1.50;0.80;;;26.40;81.90;;;;;;5045490;28;20557;-80
2023/10/11 12:03:12;;;;;;;1.50;0.90;;;26.50;80.50;;;;;;5030105;28;20502;-80
2023/10/11 12:05:40;;;;;;;1.50;0.90;;;26.50;81.80;;;;;;5044837;28;20464;-79
2023/10/11 12:08:17;;;;;;;2.57;1.43;;;26.60;81.40;;;;;;5049082;28;20772;-77
2023/10/11 12:10:47;;;;;;;1.47;0.87;;;26.70;81.10;;;;;;5066853;28;20773;-78
2023/10/11 12:13:22;;;;;;;1.47;0.90;;;26.80;80.50;;;;;;5013587;28;20971;-79
2023/10/11 12:15:54;;;;;;;1.43;0.80;;;26.80;80.20;;;;;;5030848;28;20474;-79
2023/10/11 12:18:22;;;;;;;1.50;1.00;;;26.90;80.50;;;;;;5045039;28;20567;-79
2023/10/11 12:20:49;;;;;;;1.43;0.90;;;26.90;80.90;;;;;;5032665;28;20568;-78
2023/10/11 12:23:18;;;;;;;1.47;0.80;;;26.90;80.50;;;;;;5061289;28;20984;-78
2023/10/11 12:25:47;;;;;;;1.40;0.90;;;26.90;80.50;;;;;;5046688;28;20493;-77
2023/10/11 12:28:16;;;;;;;1.47;0.90;;;27.00;80.10;;;;;;5034441;28;20481;-78
2023/10/11 12:30:45;;;;;;;1.90;1.50;;;27.10;80.50;;;;;;5046226;28;20944;-78
2023/10/11 12:33:12;;;;;;;1.50;0.83;;;27.10;80.40;;;;;;5037595;28;20482;-80
2023/10/11 12:35:41;;;;;;;1.43;0.80;;;27.20;79.30;;;;;;5041576;28;21126;-80
2023/10/11 12:38:12;;;;;;;1.50;0.80;;;27.30;80.80;;;;;;5033611;28;20488;-78
2023/10/11 12:40:39;;;;;;;1.43;0.80;;;27.30;79.10;;;;;;5045578;28;20875;-79
2023/10/11 12:43:07;;;;;;;1.50;0.80;;;27.30;79.10;;;;;;5051451;28;20955;-78
2023/10/11 12:45:36;;;;;;;1.50;1.00;;;27.40;79.90;;;;;;5048881;28;20991;-80
2023/10/11 12:48:06;;;;;;;1.43;0.80;;;27.50;79.20;;;;;;5055296;28;20527;-78
2023/10/11 12:50:36;;;;;;;1.40;0.90;;;27.50;79.10;;;;;;5047256;28;20865;-80
2023/10/11 12:53:10;;;;;;;2.23;1.77;;;27.60;80.70;;;;;;5052660;28;21157;-80
2023/10/11 12:55:39;;;;;;;1.43;0.83;;;27.70;80.30;;;;;;5048876;28;20544;-79
2023/10/11 12:58:06;;;;;;;1.40;0.80;;;27.70;80.30;;;;;;5051905;28;20481;-80
2023/10/11 13:00:37;;;;;;;1.50;0.90;;;27.70;80.50;;;;;;5049419;28;20936;-78
2023/10/11 13:03:18;;;;;;;1.43;0.90;;;27.80;80.40;;;;;;5038152;28;20557;-79
2023/10/11 13:05:46;;;;;;;1.40;0.80;;;27.70;80.20;;;;;;5049665;28;20466;-80
2023/10/11 13:08:14;;;;;;;1.67;1.20;;;27.70;79.50;;;;;;5036988;28;20478;-78
2023/10/11 13:10:45;;;;;;;1.43;0.83;;;27.60;80.90;;;;;;5047160;28;20493;-80
2023/10/11 13:13:14;;;;;;;1.47;0.83;;;27.60;80.30;;;;;;5040933;28;20477;-78
2023/10/11 13:15:43;;;;;;;1.40;0.80;;;27.40;80.50;;;;;;5068429;28;20457;-80
2023/10/11 13:18:12;;;;;;;1.47;0.80;;;27.30;80.70;;;;;;5063263;28;20492;-81
2023/10/11 13:20:45;;;;;;;1.40;0.80;;;27.30;80.80;;;;;;5069031;28;20585;-78
2023/10/11 13:23:11;;;;;;;1.40;0.80;;;27.20;81.30;;;;;;5056452;28;20509;-78
2023/10/11 13:25:38;;;;;;;1.50;0.80;;;27.20;81.90;;;;;;5068986;28;20636;-77
2023/10/11 13:28:07;;;;;;;1.43;0.80;;;27.20;81.50;;;;;;5055259;28;20678;-80
2023/10/11 13:30:36;;;;;;;2.27;2.00;;;27.20;80.90;;;;;;5066412;28;20465;-78